Kanosh, Utah
Current Conditions -  °F | °C
As of 8:55 PM on Tuesday 27 Jan 2015 (Local Time) from KDTA Reporting Station
Scattered Clouds Scattered Clouds  
Wind Chill: 35°   Ceiling: Unl
Heat Index: 41°   Visibility: 10mi
Dew Point: 33°   Wind: 10mph
Humidity: 72%   Direction: 160°SSE
Pressure: 30.2"   Gusts: NA
Location:  38.8°N, 112.44°W
Report Text: KDTA 280355Z AUTO 16009KT 10SM SCT070 SCT110 05/01 A3020 RMK AO1 T00520006
Loading
Personal Weather Stations






























Interactive Weather Map New forecast layout! Learn more

10-Day Weather Forecast

Advertisements
Track Severe Weather on mobile